Terminal Aerodrome Forecast
Issued by NWS

Home | Current Version | Previous Version | Graphics & Text | Print | Product List | Glossary Off
Versions: 1 2 3 4 5 6 7 8 9 10 11 12 13 14 15 16 17

000
FTUS42 KMHX 210200 AAA
TAFPGV
TAF AMD
KPGV 210226Z 2102/2124 04005KT P6SM VCSH BKN015
      TEMPO 2102/2106 -RA BKN007
     FM210600 01006KT 6SM BR VCSH BKN028
     FM211300 34005KT P6SM FEW200
      AMD LTD TO CLD VIS AND WIND=

USA.gov is the U.S. government's official web portal to all federal, state and local government web resources and services.